Bateman, Wisconsin
Current Conditions -  °F | °C
As of 12:56 AM on Saturday 29 Nov 2014 (Local Time) from KEAU Reporting Station
Clear Clear  
Wind Chill: 13°   Ceiling: Unl
Heat Index: 21°   Visibility: 9mi
Dew Point: 18°   Wind: 6mph
Humidity: 88%   Direction: 110°ESE
Pressure: 29.7"   Gusts: NA
Location:  44.9743°N, 91.4379°W
Report Text: KEAU 290656Z AUTO 11005KT 9SM CLR M06/M08 A2970 RMK AO2 SLP071 T10611078
Loading
Personal Weather Stations






























Interactive Weather Map New forecast layout! Learn more

10-Day Weather Forecast

Advertisements
Track Severe Weather on mobile